Time;durP1;ratioP1;P1;durP2;ratioP2;P2;SDS_P1;SDS_P2;PMS_P1;PMS_P2;Temp;Humidity;BMP_temperature;BMP_pressure;BME280_temperature;BME280_humidity;BME280_pressure;Samples;Min_cycle;Max_cycle;Signal;HPM_P1;HPM_P2
2021/12/05 00:17:06;;;;;;;22.35;14.75;;;;;;;0.34;92.73;98765.56;4991015;28;20093;-84
2021/12/05 00:18:16;;;;;;;24.23;16.55;;;;;;;0.24;96.04;98758.22;4976714;28;20038;-84
2021/12/05 00:22:31;;;;;;;23.08;16.45;;;;;;;0.21;97.21;98762.50;4995463;28;20434;-84
2021/12/05 00:25:00;;;;;;;23.10;15.77;;;;;;;0.17;97.43;98760.97;4992026;28;21445;-84
2021/12/05 00:27:32;;;;;;;25.05;16.20;;;;;;;0.07;97.96;98748.19;4958596;28;20034;-84
2021/12/05 00:30:12;;;;;;;24.23;16.38;;;;;;;0.16;98.41;98754.78;4991767;28;20052;-85
2021/12/05 00:32:51;;;;;;;22.77;15.55;;;;;;;0.14;98.32;98748.16;4972651;28;20453;-84
2021/12/05 00:35:59;;;;;;;24.25;15.98;;;;;;;0.12;98.24;98748.56;4976730;28;20437;-85
2021/12/05 00:46:03;;;;;;;26.65;16.50;;;;;;;0.00;100.00;98738.13;4976662;28;20034;-84
2021/12/05 01:08:14;;;;;;;25.52;17.10;;;;;;;0.03;100.00;98745.50;4991099;28;20046;-84
2021/12/05 01:15:44;;;;;;;26.40;16.88;;;;;;;0.21;100.00;98748.09;4958195;28;20031;-84
2021/12/05 01:18:14;;;;;;;24.23;17.35;;;;;;;0.22;100.00;98746.94;4957399;28;20053;-85
2021/12/05 01:20:48;;;;;;;25.77;18.08;;;;;;;0.24;100.00;98744.59;4973331;28;20105;-84
2021/12/05 01:31:24;;;;;;;28.63;18.02;;;;;;;0.36;100.00;98742.19;4976671;28;20048;-86
2021/12/05 01:34:16;;;;;;;26.08;17.52;;;;;;;0.35;100.00;98746.06;4972924;28;20073;-85
2021/12/05 01:37:04;;;;;;;23.80;16.55;;;;;;;0.45;100.00;98752.63;4971222;28;20045;-87
2021/12/05 02:38:33;;;;;;;25.33;17.83;;;;;;;0.80;100.00;98749.63;5003369;28;20041;-84
2021/12/05 02:43:38;;;;;;;26.85;18.52;;;;;;;0.78;100.00;98737.56;4995688;28;20033;-85
2021/12/05 02:46:05;;;;;;;25.83;18.02;;;;;;;0.74;100.00;98734.09;5015871;28;20078;-85
2021/12/05 02:48:35;;;;;;;25.88;17.90;;;;;;;0.74;100.00;98734.09;4998563;28;20049;-85
2021/12/05 02:51:09;;;;;;;25.05;18.90;;;;;;;0.65;100.00;98726.34;4999553;28;20037;-85
2021/12/05 02:53:43;;;;;;;25.77;18.90;;;;;;;0.68;100.00;98711.13;5035010;28;20040;-85
2021/12/05 02:56:10;;;;;;;27.60;18.90;;;;;;;0.74;100.00;98713.03;5001041;28;20042;-84
2021/12/05 03:01:10;;;;;;;26.10;18.08;;;;;;;0.71;100.00;98719.28;5005624;28;20079;-85
2021/12/05 03:03:37;;;;;;;24.30;17.65;;;;;;;0.65;100.00;98725.59;4997221;28;20116;-85
2021/12/05 03:06:19;;;;;;;27.45;18.85;;;;;;;0.65;100.00;98720.88;4995933;28;20045;-84
2021/12/05 03:08:46;;;;;;;24.13;17.48;;;;;;;0.69;100.00;98729.06;5012507;28;20038;-84
2021/12/05 03:11:13;;;;;;;27.40;18.08;;;;;;;0.67;100.00;98724.00;5019646;28;20038;-84
2021/12/05 03:13:40;;;;;;;24.27;17.92;;;;;;;0.69;100.00;98715.44;4987238;28;20057;-85
2021/12/05 03:16:11;;;;;;;26.42;19.13;;;;;;;0.72;100.00;98725.53;4963008;28;20034;-85
2021/12/05 03:18:38;;;;;;;26.45;17.88;;;;;;;0.70;100.00;98720.47;4995222;28;20117;-84
2021/12/05 03:21:04;;;;;;;26.80;18.67;;;;;;;0.69;100.00;98702.53;4987825;28;20073;-85
2021/12/05 03:23:36;;;;;;;28.83;18.38;;;;;;;0.73;100.00;98700.53;4989769;28;20193;-85
2021/12/05 03:26:05;;;;;;;28.20;18.42;;;;;;;0.71;100.00;98705.66;4994889;28;20129;-85
2021/12/05 03:28:31;;;;;;;25.75;18.42;;;;;;;0.71;100.00;98713.84;4970294;28;20038;-85
2021/12/05 03:30:57;;;;;;;26.02;19.15;;;;;;;0.71;100.00;98713.84;4993690;28;20415;-84
2021/12/05 03:33:23;;;;;;;26.25;18.38;;;;;;;0.72;100.00;98714.63;4978138;28;20042;-85
2021/12/05 03:35:49;;;;;;;27.83;19.38;;;;;;;0.70;100.00;98715.00;4995139;28;20526;-85
2021/12/05 03:38:15;;;;;;;27.60;18.40;;;;;;;0.78;100.00;98718.44;4979032;28;20044;-84
2021/12/05 03:40:41;;;;;;;25.63;18.55;;;;;;;0.67;100.00;98704.91;4978593;28;20042;-85
2021/12/05 03:43:14;;;;;;;25.83;18.73;;;;;;;0.74;100.00;98704.84;4976171;28;20049;-85
2021/12/05 03:45:42;;;;;;;26.23;18.27;;;;;;;0.74;100.00;98710.28;4991286;28;20050;-85
2021/12/05 03:48:11;;;;;;;27.45;19.58;;;;;;;0.73;100.00;98722.38;4978714;28;20038;-85
2021/12/05 03:50:37;;;;;;;24.95;18.92;;;;;;;0.65;100.00;98709.22;4978697;28;20034;-85
2021/12/05 03:53:05;;;;;;;27.35;20.30;;;;;;;0.63;100.00;98690.50;4965563;28;20256;-86
2021/12/05 03:55:32;;;;;;;26.83;18.90;;;;;;;0.65;100.00;98698.31;4979414;28;20176;-85
2021/12/05 03:57:57;;;;;;;25.67;18.95;;;;;;;0.63;100.00;98701.44;4994715;28;20048;-85
2021/12/05 04:00:29;;;;;;;26.30;19.08;;;;;;;0.67;100.00;98725.97;4977312;28;20034;-85
2021/12/05 04:02:57;;;;;;;27.13;19.23;;;;;;;0.67;100.00;98734.94;4977980;28;20418;-85
2021/12/05 04:05:25;;;;;;;26.88;18.75;;;;;;;0.68;100.00;98722.84;4994480;28;20042;-85
2021/12/05 04:07:52;;;;;;;27.77;19.38;;;;;;;0.73;100.00;98722.38;4974872;28;20046;-85
2021/12/05 04:10:20;;;;;;;27.13;19.38;;;;;;;0.73;100.00;98718.91;4970870;28;20072;-85
2021/12/05 04:12:46;;;;;;;26.95;19.70;;;;;;;0.64;100.00;98713.91;4978004;28;20042;-85
2021/12/05 04:15:14;;;;;;;27.15;19.45;;;;;;;0.70;100.00;98715.00;4962463;28;20045;-85
2021/12/05 04:17:41;;;;;;;26.77;19.70;;;;;;;0.75;100.00;98724.72;4978659;28;20494;-85
2021/12/05 04:20:10;;;;;;;25.48;18.67;;;;;;;0.78;100.00;98732.09;4974268;28;20169;-85
2021/12/05 04:22:36;;;;;;;25.10;18.15;;;;;;;0.76;100.00;98726.28;4991715;28;20120;-85
2021/12/05 04:25:09;;;;;;;28.77;19.35;;;;;;;0.66;100.00;98711.53;4976719;28;20042;-85
2021/12/05 04:27:35;;;;;;;28.42;18.98;;;;;;;0.64;100.00;98713.91;4995037;28;20081;-85
2021/12/05 04:30:01;;;;;;;28.00;19.35;;;;;;;0.74;100.00;98734.84;4961113;28;20516;-85
2021/12/05 04:32:26;;;;;;;27.77;19.75;;;;;;;0.64;100.00;98721.31;4977991;28;20025;-85
2021/12/05 04:34:52;;;;;;;28.92;20.30;;;;;;;0.72;100.00;98720.84;4978025;28;20041;-85
2021/12/05 04:37:19;;;;;;;28.02;19.50;;;;;;;0.72;100.00;98709.16;4992647;28;20153;-85
2021/12/05 04:39:45;;;;;;;29.38;19.55;;;;;;;0.77;100.00;98698.56;4977465;28;20525;-85
2021/12/05 04:42:10;;;;;;;27.02;20.50;;;;;;;0.74;100.00;98690.41;4977079;28;20058;-85
2021/12/05 04:44:36;;;;;;;27.95;19.38;;;;;;;0.81;100.00;98696.56;5011064;28;20542;-84
2021/12/05 04:47:05;;;;;;;27.85;19.90;;;;;;;0.77;100.00;98695.84;4977283;28;22051;-85
2021/12/05 04:49:31;;;;;;;27.77;20.02;;;;;;;0.83;100.00;98704.38;4978466;28;20038;-85
2021/12/05 04:51:57;;;;;;;27.27;20.08;;;;;;;0.84;100.00;98701.25;4976277;28;20052;-84
2021/12/05 04:54:23;;;;;;;29.60;20.67;;;;;;;0.77;100.00;98695.09;4993456;28;20121;-85
2021/12/05 04:56:49;;;;;;;28.52;19.65;;;;;;;0.78;100.00;98691.16;4993312;28;20037;-85
2021/12/05 04:59:22;;;;;;;29.70;19.65;;;;;;;0.82;100.00;98695.41;4993485;28;20554;-85
2021/12/05 05:01:49;;;;;;;26.27;19.98;;;;;;;0.82;100.00;98687.22;4967542;28;20520;-85
2021/12/05 05:06:50;;;;;;;28.75;19.77;;;;;;;0.92;100.00;98705.47;4994560;28;20443;-85
2021/12/05 05:09:17;;;;;;;28.88;19.77;;;;;;;0.85;100.00;98694.59;4993346;28;20049;-85
2021/12/05 05:11:43;;;;;;;29.25;19.98;;;;;;;0.94;100.00;98703.09;4991313;28;20065;-85
2021/12/05 05:14:09;;;;;;;26.42;19.15;;;;;;;0.89;100.00;98691.84;4992982;28;20769;-85
2021/12/05 05:16:35;;;;;;;26.02;19.15;;;;;;;0.98;100.00;98708.50;4993463;28;20038;-84
2021/12/05 05:19:01;;;;;;;28.45;19.52;;;;;;;0.90;100.00;98685.97;5010413;28;20399;-85
2021/12/05 05:43:18;;;;;;;28.65;21.40;;;;;;;1.02;100.00;98708.47;5000539;28;20510;-85
2021/12/05 05:45:43;;;;;;;29.60;21.83;;;;;;;0.96;100.00;98705.44;5005039;28;20042;-85
2021/12/05 05:50:34;;;;;;;32.33;22.92;;;;;;;0.94;100.00;98705.81;5010338;28;20065;-85
2021/12/05 05:53:00;;;;;;;32.42;23.15;;;;;;;1.00;100.00;98713.59;4976116;28;20491;-85
2021/12/05 05:55:26;;;;;;;36.35;23.50;;;;;;;1.03;100.00;98719.00;5010993;28;20117;-85
2021/12/05 06:00:31;;;;;;;35.22;23.40;;;;;;;1.09;100.00;98730.28;4997243;28;20038;-85
2021/12/05 06:05:43;;;;;;;33.92;23.92;;;;;;;1.06;100.00;98717.41;5013696;28;20384;-85
2021/12/05 06:08:09;;;;;;;35.25;24.92;;;;;;;1.01;100.00;98706.94;4996221;28;20046;-84
2021/12/05 06:10:34;;;;;;;35.05;24.20;;;;;;;1.06;100.00;98728.31;4997632;28;20124;-84
2021/12/05 06:13:00;;;;;;;36.00;25.30;;;;;;;1.04;100.00;98730.69;4996378;28;20117;-84
2021/12/05 06:15:28;;;;;;;35.50;25.23;;;;;;;1.08;100.00;98754.06;5013264;28;20589;-85
2021/12/05 06:17:54;;;;;;;38.97;26.30;;;;;;;1.11;100.00;98763.41;4980033;28;20030;-84
2021/12/05 06:20:23;;;;;;;38.55;25.85;;;;;;;1.05;100.00;98754.09;4997312;28;20050;-84
2021/12/05 06:22:49;;;;;;;35.25;25.30;;;;;;;1.08;100.00;98758.75;4991069;28;20080;-84
2021/12/05 06:25:20;;;;;;;36.30;25.42;;;;;;;1.08;100.00;98761.47;4995042;28;20065;-84
2021/12/05 06:27:54;;;;;;;36.72;25.17;;;;;;;1.11;100.00;98764.19;5012912;28;20049;-84
2021/12/05 06:46:15;;;;;;;38.70;27.80;;;;;;;0.98;100.00;98782.22;4994477;28;20034;-85
2021/12/05 06:48:42;;;;;;;40.78;28.25;;;;;;;0.96;100.00;98790.06;4993932;28;20127;-85
2021/12/05 06:51:08;;;;;;;45.85;29.35;;;;;;;1.03;100.00;98784.53;4993388;28;20042;-84
2021/12/05 06:53:34;;;;;;;39.95;28.02;;;;;;;0.89;100.00;98763.59;5006057;28;20053;-85
2021/12/05 06:55:59;;;;;;;40.45;28.35;;;;;;;0.90;100.00;98767.09;4995211;28;20104;-84
2021/12/05 06:58:25;;;;;;;44.63;29.38;;;;;;;0.97;100.00;98779.94;4995594;28;20053;-84
2021/12/05 07:00:50;;;;;;;48.92;30.65;;;;;;;1.03;100.00;98790.00;5009507;28;20518;-84
2021/12/05 07:03:16;;;;;;;47.47;30.52;;;;;;;1.11;100.00;98790.72;5012068;28;20038;-84
2021/12/05 07:05:48;;;;;;;44.53;30.13;;;;;;;1.16;100.00;98796.53;4978422;28;20105;-83
2021/12/05 07:08:16;;;;;;;41.38;30.52;;;;;;;1.21;100.00;98798.03;4980313;28;20399;-83
2021/12/05 07:11:11;;;;;;;43.10;29.83;;;;;;;1.15;100.00;98780.53;4995542;28;20046;-83
2021/12/05 07:16:16;;;;;;;43.65;30.50;;;;;;;1.26;100.00;98770.28;4995143;28;20491;-85
2021/12/05 07:24:11;;;;;;;42.08;29.65;;;;;;;1.52;100.00;98794.22;4994410;28;20584;-85
2021/12/05 07:42:57;;;;;;;42.90;29.15;;;;;;;1.78;100.00;98815.41;4996768;28;20038;-83
2021/12/05 07:45:30;;;;;;;43.30;31.17;;;;;;;1.81;100.00;98803.66;4995480;28;20088;-83
2021/12/05 07:47:57;;;;;;;;;;;;;;;1.82;100.00;98786.06;4995678;28;20418;-83
2021/12/05 07:50:38;;;;;;;42.67;30.80;;;;;;;1.85;100.00;98790.72;4981541;28;19917;-83
2021/12/05 07:53:09;;;;;;;41.47;29.58;;;;;;;1.92;100.00;98802.75;5012456;28;20499;-83
2021/12/05 07:55:40;;;;;;;40.40;29.25;;;;;;;1.95;100.00;98804.66;5011966;28;20056;-83
2021/12/05 07:58:33;;;;;;;38.55;28.42;;;;;;;1.93;100.00;98796.88;5012987;28;20053;-83
2021/12/05 08:01:25;;;;;;;38.58;29.55;;;;;;;1.92;100.00;98800.81;5000382;28;20081;-84
2021/12/05 08:14:57;;;;;;;38.20;26.08;;;;;;;1.68;100.00;98843.66;5024907;28;20560;-83
2021/12/05 08:17:23;;;;;;;35.80;27.25;;;;;;;1.63;100.00;98852.28;5028073;28;20134;-83
2021/12/05 08:19:48;;;;;;;37.22;26.67;;;;;;;1.59;100.00;98848.03;4998884;28;20500;-83
2021/12/05 08:22:15;;;;;;;35.75;25.42;;;;;;;1.59;100.00;98853.50;5010073;28;20559;-83
2021/12/05 08:24:42;;;;;;;36.10;26.25;;;;;;;1.48;100.00;98848.13;5011062;28;20042;-83
2021/12/05 08:27:12;;;;;;;40.75;28.15;;;;;;;1.43;100.00;98840.38;5010371;28;20113;-83
2021/12/05 08:29:48;;;;;;;36.38;26.95;;;;;;;1.37;100.00;98836.53;5009657;28;20042;-83
2021/12/05 08:37:50;;;;;;;40.13;29.25;;;;;;;1.44;100.00;98863.00;5011811;28;20539;-83
2021/12/05 09:23:43;;;;;;;36.13;24.65;;;;;;;1.40;100.00;98857.56;4997547;28;20053;-83
2021/12/05 10:07:30;;;;;;;35.53;25.80;;;;;;;1.90;100.00;98835.22;5003721;28;20499;-83
2021/12/05 10:10:06;;;;;;;31.67;24.10;;;;;;;1.95;100.00;98826.53;5011049;28;20050;-83
2021/12/05 10:15:51;;;;;;;32.50;24.75;;;;;;;1.93;100.00;98804.31;4973320;28;20038;-83
2021/12/05 10:38:15;;;;;;;27.20;20.67;;;;;;;2.31;100.00;98811.25;5014883;28;20137;-82
2021/12/05 10:41:21;;;;;;;27.00;20.85;;;;;;;2.25;100.00;98805.47;5007831;28;20054;-83
2021/12/05 10:43:45;;;;;;;30.55;20.88;;;;;;;2.26;100.00;98809.00;5010067;28;20052;-83
2021/12/05 10:46:14;;;;;;;27.15;20.35;;;;;;;2.30;100.00;98802.28;4993042;28;20078;-82
2021/12/05 10:48:44;;;;;;;25.83;20.02;;;;;;;2.38;100.00;98808.44;5007937;28;20066;-82
2021/12/05 10:51:14;;;;;;;25.52;20.20;;;;;;;2.46;100.00;98796.19;5008584;28;20062;-83
2021/12/05 10:53:40;;;;;;;27.45;21.08;;;;;;;2.52;100.00;98789.06;5011847;28;20104;-83
2021/12/05 10:56:08;;;;;;;27.95;21.23;;;;;;;2.59;100.00;98794.44;4993329;28;20042;-83
2021/12/05 10:58:38;;;;;;;28.35;21.63;;;;;;;2.68;100.00;98780.22;5011778;28;20085;-83
2021/12/05 11:01:09;;;;;;;28.05;21.17;;;;;;;2.71;100.00;98785.63;5009805;28;20952;-83
2021/12/05 11:03:34;;;;;;;27.77;21.70;;;;;;;2.75;100.00;98769.94;4991100;28;20096;-83
2021/12/05 11:06:00;;;;;;;29.58;23.52;;;;;;;2.83;100.00;98787.81;4994164;28;20041;-83
2021/12/05 11:08:37;;;;;;;26.88;21.30;;;;;;;2.92;100.00;98783.75;4999158;28;20103;-83
2021/12/05 11:11:11;;;;;;;27.02;22.05;;;;;;;2.93;100.00;98775.13;4975530;28;20034;-83
2021/12/05 11:13:38;;;;;;;31.63;24.25;;;;;;;2.91;100.00;98782.22;5013487;28;20093;-83
2021/12/05 11:16:06;;;;;;;34.25;26.63;;;;;;;2.95;100.00;98793.91;5013306;28;20046;-83
2021/12/05 11:18:42;;;;;;;36.05;27.00;;;;;;;3.05;100.00;98798.44;4982414;28;20103;-83
2021/12/05 11:21:31;;;;;;;34.60;26.55;;;;;;;3.09;100.00;98793.66;5010697;28;20061;-83
2021/12/05 11:24:06;;;;;;;34.22;26.08;;;;;;;3.17;100.00;98784.13;5012433;28;20451;-83
2021/12/05 11:26:33;;;;;;;30.42;24.67;;;;;;;3.19;100.00;98773.53;5005391;28;20038;-83
2021/12/05 11:28:59;;;;;;;34.08;26.08;;;;;;;3.21;100.00;98774.66;4991873;28;20037;-84
2021/12/05 11:31:26;;;;;;;34.95;27.08;;;;;;;3.30;100.00;98779.59;4978646;28;21318;-83
2021/12/05 11:33:55;;;;;;;33.50;25.63;;;;;;;3.37;100.00;98782.22;5004590;28;20061;-83
2021/12/05 11:36:25;;;;;;;30.13;24.45;;;;;;;3.45;100.00;98782.84;5008530;28;20133;-84
2021/12/05 11:38:51;;;;;;;31.75;25.17;;;;;;;3.39;100.00;98785.31;5018372;28;20097;-84
2021/12/05 11:41:22;;;;;;;31.55;23.92;;;;;;;3.43;100.00;98755.88;5002010;28;20045;-84
2021/12/05 11:43:56;;;;;;;26.98;21.65;;;;;;;3.47;100.00;98778.53;4988100;28;20189;-84
2021/12/05 11:46:27;;;;;;;22.83;18.90;;;;;;;3.56;100.00;98784.19;5018602;28;20083;-84
2021/12/05 11:48:54;;;;;;;26.00;19.70;;;;;;;3.61;100.00;98770.00;4989043;28;20050;-84
2021/12/05 11:51:33;;;;;;;25.05;19.50;;;;;;;3.62;100.00;98755.13;5004505;28;20124;-84
2021/12/05 11:54:18;;;;;;;25.63;19.40;;;;;;;3.73;100.00;98769.38;4961998;28;20045;-84
2021/12/05 11:57:03;;;;;;;22.17;17.88;;;;;;;3.73;100.00;98732.97;4991914;28;20049;-84
2021/12/05 11:59:36;;;;;;;24.95;18.90;;;;;;;3.78;100.00;98734.44;5004253;28;20133;-84
2021/12/05 12:02:20;;;;;;;23.48;18.77;;;;;;;3.78;100.00;98745.41;5005646;28;20062;-84
2021/12/05 12:04:55;;;;;;;20.33;16.20;;;;;;;3.74;100.00;98761.94;5002436;28;20104;-83
2021/12/05 12:07:30;;;;;;;19.20;15.93;;;;;;;3.70;100.00;98740.06;4994189;28;20046;-84
2021/12/05 12:10:06;;;;;;;22.52;16.98;;;;;;;3.62;100.00;98727.69;5002584;28;20042;-84
2021/12/05 12:12:33;;;;;;;20.42;16.73;;;;;;;3.69;100.00;98732.25;4997724;28;20046;-84
2021/12/05 12:14:58;;;;;;;19.15;15.45;;;;;;;3.71;100.00;98718.91;5002478;28;20042;-84
2021/12/05 12:17:24;;;;;;;21.15;16.88;;;;;;;3.80;100.00;98726.56;5002554;28;20466;-84
2021/12/05 12:19:52;;;;;;;21.73;17.10;;;;;;;3.84;100.00;98727.28;5003649;28;20050;-84
2021/12/05 12:22:21;;;;;;;20.05;15.50;;;;;;;3.84;100.00;98721.78;4986086;28;20499;-84
2021/12/05 12:24:56;;;;;;;22.60;17.02;;;;;;;3.78;100.00;98729.72;4984734;28;20050;-84
2021/12/05 12:27:22;;;;;;;23.90;17.63;;;;;;;3.61;100.00;98715.16;4985694;28;20107;-84
2021/12/05 12:29:49;;;;;;;23.10;18.38;;;;;;;3.72;100.00;98731.44;5008151;28;20573;-88
2021/12/05 12:32:18;;;;;;;25.77;19.80;;;;;;;3.70;100.00;98718.13;4990349;28;20684;-88
2021/12/05 12:34:44;;;;;;;23.27;18.63;;;;;;;3.72;100.00;98721.22;4995840;28;20522;-87
2021/12/05 12:37:12;;;;;;;24.42;19.23;;;;;;;3.72;100.00;98721.22;5007898;28;20495;-87
2021/12/05 12:39:44;;;;;;;24.35;18.77;;;;;;;3.67;100.00;98723.69;4989753;28;20518;-87
2021/12/05 12:42:18;;;;;;;22.92;16.73;;;;;;;3.68;100.00;98726.00;5012087;28;20046;-88
2021/12/05 12:45:08;;;;;;;22.73;17.63;;;;;;;3.62;100.00;98721.44;5007207;28;20057;-87
2021/12/05 12:47:35;;;;;;;22.00;18.05;;;;;;;3.51;100.00;98705.19;5010319;28;20542;-88
2021/12/05 12:50:24;;;;;;;22.83;17.80;;;;;;;3.53;100.00;98708.28;5006657;28;20041;-87
2021/12/05 12:53:20;;;;;;;21.38;17.15;;;;;;;3.54;100.00;98704.34;5009973;28;20070;-87
2021/12/05 12:56:08;;;;;;;26.58;18.90;;;;;;;3.59;100.00;98692.91;4993798;28;20044;-87
2021/12/05 12:58:56;;;;;;;22.48;17.75;;;;;;;3.58;100.00;98666.66;5010374;28;20048;-87
2021/12/05 13:12:49;;;;;;;24.35;17.38;;;;;;;3.33;100.00;98655.44;4993519;28;20037;-87
2021/12/05 13:15:24;;;;;;;22.13;16.90;;;;;;;3.29;100.00;98651.97;5010846;28;20041;-87
2021/12/05 13:17:51;;;;;;;22.20;16.70;;;;;;;3.24;100.00;98649.72;5015311;28;20133;-87
2021/12/05 13:20:21;;;;;;;22.67;17.10;;;;;;;3.18;100.00;98659.63;5005408;28;20065;-88
2021/12/05 13:23:08;;;;;;;26.05;18.95;;;;;;;3.14;100.00;98664.41;5010336;28;20376;-87
2021/12/05 13:26:15;;;;;;;23.88;17.92;;;;;;;3.07;100.00;98672.78;5007954;28;20124;-87
2021/12/05 13:28:50;;;;;;;24.13;17.85;;;;;;;3.02;100.00;98667.78;5018978;28;20492;-85
2021/12/05 13:31:31;;;;;;;23.55;17.80;;;;;;;2.99;100.00;98674.88;4996981;28;20049;-85
2021/12/05 13:34:14;;;;;;;24.27;17.45;;;;;;;2.97;100.00;98687.44;5015394;28;20136;-84
2021/12/05 13:36:41;;;;;;;26.27;18.70;;;;;;;2.94;100.00;98688.25;5008460;28;20103;-85
2021/12/05 13:39:32;;;;;;;24.33;18.38;;;;;;;2.92;100.00;98691.41;5003122;28;20034;-85
2021/12/05 13:42:08;;;;;;;23.73;17.92;;;;;;;2.91;100.00;98694.59;5006583;28;20057;-84
2021/12/05 13:45:00;;;;;;;24.80;18.10;;;;;;;2.89;100.00;98702.44;5012644;28;20116;-84
2021/12/05 13:47:29;;;;;;;24.13;18.13;;;;;;;2.83;100.00;98711.13;5017159;28;20049;-84
2021/12/05 13:50:27;;;;;;;26.00;19.02;;;;;;;2.92;100.00;98720.75;4997221;28;20053;-84
2021/12/05 13:53:01;;;;;;;27.60;20.15;;;;;;;2.92;100.00;98728.97;5015959;28;20072;-85
2021/12/05 13:55:59;;;;;;;27.08;19.85;;;;;;;2.92;100.00;98724.28;5009359;28;20034;-84
2021/12/05 13:58:40;;;;;;;25.38;18.70;;;;;;;2.92;100.00;98720.75;5012635;28;20050;-85
2021/12/05 14:01:21;;;;;;;25.58;18.58;;;;;;;2.86;100.00;98722.44;5003163;28;20078;-84
2021/12/05 14:03:49;;;;;;;24.83;18.70;;;;;;;2.81;100.00;98723.69;5009510;28;20408;-84
2021/12/05 14:06:30;;;;;;;25.60;18.35;;;;;;;2.81;100.00;98740.91;5008827;28;20054;-85
2021/12/05 14:09:19;;;;;;;27.88;19.70;;;;;;;2.80;100.00;98738.56;4994931;28;20054;-84
2021/12/05 14:12:07;;;;;;;27.40;20.35;;;;;;;2.79;100.00;98740.53;5000073;28;20495;-85
2021/12/05 14:14:59;;;;;;;27.08;19.65;;;;;;;2.72;100.00;98735.19;5011101;28;20054;-84
2021/12/05 14:17:33;;;;;;;26.83;19.88;;;;;;;2.72;100.00;98726.97;4990962;28;20030;-84
2021/12/05 14:20:06;;;;;;;28.08;20.58;;;;;;;2.75;100.00;98726.13;5018925;28;20046;-84
2021/12/05 14:22:33;;;;;;;29.23;21.17;;;;;;;2.69;100.00;98718.81;4988043;28;20058;-85
2021/12/05 14:25:02;;;;;;;29.20;21.63;;;;;;;2.73;100.00;98722.25;4988678;28;20080;-84
2021/12/05 14:27:35;;;;;;;28.60;20.92;;;;;;;2.70;100.00;98717.63;5003887;28;20053;-84
2021/12/05 14:30:03;;;;;;;28.52;20.45;;;;;;;2.64;100.00;98713.78;4997636;28;20050;-84
2021/12/05 14:32:37;;;;;;;29.50;21.02;;;;;;;2.65;100.00;98721.59;5021127;28;20424;-84
2021/12/05 14:35:07;;;;;;;;;;;;;;;2.62;100.00;98716.97;5027194;28;20129;-84
2021/12/05 14:37:34;;;;;;;30.50;21.20;;;;;;;2.58;100.00;98710.00;5000555;28;19917;-84
2021/12/05 14:40:03;;;;;;;32.75;23.23;;;;;;;2.55;100.00;98700.63;5009827;28;20096;-84
2021/12/05 14:42:32;;;;;;;34.25;23.05;;;;;;;2.54;100.00;98692.84;4995324;28;20808;-86
2021/12/05 14:45:05;;;;;;;30.65;19.35;;;;;;;2.49;100.00;98696.84;5005662;28;20041;-87
2021/12/05 14:47:33;;;;;;;35.28;23.73;;;;;;;2.51;100.00;98718.31;5012488;28;20049;-87
2021/12/05 14:50:05;;;;;;;33.35;23.17;;;;;;;2.46;100.00;98730.50;4993106;28;20048;-86
2021/12/05 14:52:33;;;;;;;35.60;24.05;;;;;;;2.51;100.00;98735.50;4976392;28;20046;-87
2021/12/05 14:55:00;;;;;;;33.60;23.52;;;;;;;2.43;100.00;98714.91;4987371;28;20100;-87
2021/12/05 14:57:31;;;;;;;33.08;22.45;;;;;;;2.47;100.00;98740.25;5008757;28;20048;-85
2021/12/05 15:00:09;;;;;;;33.72;22.80;;;;;;;2.38;100.00;98729.06;5008846;28;20038;-86
2021/12/05 15:02:36;;;;;;;33.05;22.08;;;;;;;2.40;100.00;98739.59;5013569;28;20053;-86
2021/12/05 15:05:01;;;;;;;31.67;22.55;;;;;;;2.44;100.00;98743.03;4996442;28;20094;-86
2021/12/05 15:07:28;;;;;;;31.98;22.33;;;;;;;2.44;100.00;98748.53;5007891;28;20042;-86
2021/12/05 15:09:56;;;;;;;32.47;22.52;;;;;;;2.42;100.00;98756.38;4996765;28;20040;-86
2021/12/05 15:12:28;;;;;;;33.67;23.35;;;;;;;2.42;100.00;98751.69;5011945;28;20442;-86
2021/12/05 15:14:56;;;;;;;33.35;23.20;;;;;;;2.41;100.00;98766.56;4995238;28;20078;-87
2021/12/05 15:17:27;;;;;;;32.63;23.13;;;;;;;2.35;100.00;98757.25;4995035;28;20034;-86
2021/12/05 15:20:00;;;;;;;;;;;;;;;2.44;100.00;98773.94;4998698;28;20080;-86
2021/12/05 15:22:27;;;;;;;32.67;22.55;;;;;;;2.44;100.00;98771.19;5011895;28;20406;-86
2021/12/05 15:24:58;;;;;;;38.40;24.00;;;;;;;2.45;100.00;98769.22;5011062;28;20042;-86
2021/12/05 15:27:27;;;;;;;35.45;24.33;;;;;;;2.42;100.00;98781.78;5013245;28;20048;-86
2021/12/05 15:29:59;;;;;;;33.38;23.17;;;;;;;2.42;100.00;98790.00;4996005;28;20081;-86
2021/12/05 15:32:28;;;;;;;36.50;24.00;;;;;;;2.41;100.00;98802.13;5002252;28;20053;-86
2021/12/05 15:34:57;;;;;;;35.97;24.58;;;;;;;2.42;100.00;98813.84;4995991;28;20096;-86
2021/12/05 15:37:23;;;;;;;37.38;24.30;;;;;;;2.39;100.00;98825.63;4994109;28;20050;-86
2021/12/05 15:39:51;;;;;;;37.97;26.05;;;;;;;2.41;100.00;98834.97;5012688;28;20052;-86
2021/12/05 15:42:28;;;;;;;38.55;26.83;;;;;;;2.42;100.00;98839.25;4978696;28;20112;-86
2021/12/05 15:44:56;;;;;;;39.38;27.17;;;;;;;2.42;100.00;98841.22;4995162;28;20070;-86
2021/12/05 15:47:27;;;;;;;49.28;31.92;;;;;;;2.39;100.00;98839.31;5013206;28;20522;-86
2021/12/05 15:50:00;;;;;;;45.45;29.90;;;;;;;2.38;100.00;98843.22;5012306;28;20407;-86
2021/12/05 15:52:40;;;;;;;41.10;28.45;;;;;;;2.31;100.00;98820.22;4994491;28;20050;-86
2021/12/05 15:55:28;;;;;;;43.95;29.85;;;;;;;2.30;100.00;98821.44;4994549;28;20442;-86
2021/12/05 15:58:10;;;;;;;45.35;28.67;;;;;;;2.25;100.00;98816.41;4982580;28;20229;-86
2021/12/05 16:00:43;;;;;;;45.10;29.48;;;;;;;2.24;100.00;98808.59;5002144;28;20045;-86
2021/12/05 16:03:12;;;;;;;48.08;30.20;;;;;;;2.17;100.00;98805.97;4996226;28;20057;-86
2021/12/05 16:05:40;;;;;;;46.13;29.70;;;;;;;2.15;100.00;98813.78;4994099;28;20045;-86
2021/12/05 16:08:10;;;;;;;44.90;28.27;;;;;;;2.17;100.00;98839.56;5010847;28;20097;-86
2021/12/05 16:10:38;;;;;;;45.75;28.50;;;;;;;2.03;100.00;98838.94;4991535;28;20049;-86
2021/12/05 16:13:09;;;;;;;45.88;28.10;;;;;;;2.09;100.00;98846.31;4996830;28;20038;-86
2021/12/05 16:15:34;;;;;;;47.63;31.00;;;;;;;2.09;100.00;98851.00;4993533;28;20312;-87
2021/12/05 16:18:01;;;;;;;45.05;28.83;;;;;;;2.13;100.00;98854.47;5011419;28;20478;-86
2021/12/05 16:20:46;;;;;;;46.10;29.77;;;;;;;2.15;100.00;98857.56;5010225;28;20030;-86
2021/12/05 16:23:49;;;;;;;47.90;29.00;;;;;;;2.05;100.00;98842.06;4996452;28;20058;-86
2021/12/05 16:26:22;;;;;;;43.38;27.67;;;;;;;2.10;100.00;98839.66;4922650;29;20146;-86
2021/12/05 16:29:22;;;;;;;43.72;28.98;;;;;;;2.05;100.00;98842.06;4999859;28;20111;-87
2021/12/05 16:31:53;;;;;;;44.47;28.30;;;;;;;2.04;100.00;98840.50;4979065;28;20088;-86
2021/12/05 16:34:22;;;;;;;48.22;30.17;;;;;;;2.01;100.00;98846.81;4994689;28;20500;-86
2021/12/05 16:36:53;;;;;;;48.00;31.05;;;;;;;2.05;100.00;98853.00;4985259;28;20064;-86
2021/12/05 16:39:32;;;;;;;48.03;30.92;;;;;;;2.05;100.00;98853.00;5010234;28;20054;-86
2021/12/05 16:42:01;;;;;;;48.22;31.30;;;;;;;2.05;100.00;98847.53;4974227;28;20104;-86
2021/12/05 16:44:30;;;;;;;56.50;35.85;;;;;;;2.02;100.00;98830.00;5010896;28;20049;-86
2021/12/05 16:46:59;;;;;;;48.20;31.05;;;;;;;1.95;100.00;98837.47;4997980;28;20038;-86
2021/12/05 16:49:27;;;;;;;49.72;30.55;;;;;;;1.90;100.00;98829.75;4994859;28;20053;-86
2021/12/05 16:51:56;;;;;;;48.92;29.85;;;;;;;1.82;100.00;98818.88;4998339;28;20048;-86
2021/12/05 16:54:26;;;;;;;44.65;28.40;;;;;;;1.83;100.00;98830.59;5011869;28;20057;-86
2021/12/05 16:57:13;;;;;;;46.42;29.63;;;;;;;1.79;100.00;98840.78;5010014;28;20053;-86
2021/12/05 16:59:45;;;;;;;47.28;29.80;;;;;;;1.77;100.00;98829.50;5009882;28;20050;-86
2021/12/05 17:02:51;;;;;;;45.03;28.30;;;;;;;1.77;100.00;98824.81;5013890;28;20623;-86
2021/12/05 17:05:26;;;;;;;45.25;27.05;;;;;;;1.77;100.00;98816.59;4998797;28;20468;-86
2021/12/05 17:08:00;;;;;;;41.92;26.42;;;;;;;1.76;100.00;98823.25;5017427;28;20479;-86
2021/12/05 17:10:26;;;;;;;39.65;25.35;;;;;;;1.73;100.00;98835.00;5010954;28;20402;-86